Map

Track Data

SID SEASON NUMBER BASIN SUBBASIN NAME ISO_TIME NATURE LAT LON WMO_WIND WMO_PRES WMO_AGENCY TRACK_TYPE DIST2LAND LANDFALL IFLAG USA_AGENCY USA_ATCF_ID USA_LAT USA_LON USA_RECORD USA_STATUS USA_WIND USA_PRES USA_SSHS USA_R34_NE USA_R34_SE USA_R34_SW USA_R34_NW USA_R50_NE USA_R50_SE USA_R50_SW USA_R50_NW USA_R64_NE USA_R64_SE USA_R64_SW USA_R64_NW USA_POCI USA_ROCI USA_RMW USA_EYE TOKYO_LAT TOKYO_LON TOKYO_GRADE TOKYO_WIND TOKYO_PRES TOKYO_R50_DIR TOKYO_R50_LONG TOKYO_R50_SHORT TOKYO_R30_DIR TOKYO_R30_LONG TOKYO_R30_SHORT TOKYO_LAND CMA_LAT CMA_LON CMA_CAT CMA_WIND CMA_PRES HKO_LAT HKO_LON HKO_CAT HKO_WIND HKO_PRES NEWDELHI_LAT NEWDELHI_LON NEWDELHI_GRADE NEWDELHI_WIND NEWDELHI_PRES NEWDELHI_CI NEWDELHI_DP NEWDELHI_POCI REUNION_LAT REUNION_LON REUNION_TYPE REUNION_WIND REUNION_PRES REUNION_TNUM REUNION_CI REUNION_RMW REUNION_R34_NE REUNION_R34_SE REUNION_R34_SW REUNION_R34_NW REUNION_R50_NE REUNION_R50_SE REUNION_R50_SW REUNION_R50_NW REUNION_R64_NE REUNION_R64_SE REUNION_R64_SW REUNION_R64_NW BOM_LAT BOM_LON BOM_TYPE BOM_WIND BOM_PRES BOM_TNUM BOM_CI BOM_RMW BOM_R34_NE BOM_R34_SE BOM_R34_SW BOM_R34_NW BOM_R50_NE BOM_R50_SE BOM_R50_SW BOM_R50_NW BOM_R64_NE BOM_R64_SE BOM_R64_SW BOM_R64_NW BOM_ROCI BOM_POCI BOM_EYE BOM_POS_METHOD BOM_PRES_METHOD NADI_LAT NADI_LON NADI_CAT NADI_WIND NADI_PRES WELLINGTON_LAT WELLINGTON_LON WELLINGTON_WIND WELLINGTON_PRES DS824_LAT DS824_LON DS824_STAGE DS824_WIND DS824_PRES TD9636_LAT TD9636_LON TD9636_STAGE TD9636_WIND TD9636_PRES TD9635_LAT TD9635_LON TD9635_WIND TD9635_PRES TD9635_ROCI NEUMANN_LAT NEUMANN_LON NEUMANN_CLASS NEUMANN_WIND NEUMANN_PRES MLC_LAT MLC_LON MLC_CLASS MLC_WIND MLC_PRES USA_GUST BOM_GUST BOM_GUST_PER REUNION_GUST REUNION_GUST_PER USA_SEAHGT USA_SEARAD_NE USA_SEARAD_SE USA_SEARAD_SW USA_SEARAD_NW STORM_SPEED STORM_DIR
1926136S22154 1926 20 SP EA NOT_NAMED 1926-05-15 23:00:00 NR -22.0000 154.200 999 bom main 326 304 ______O_______ -1 -22.0000 154.200 999 4 11 188
1926136S22154 1926 20 SP EA NOT_NAMED 1926-05-16 00:00:00 TS -22.1839 154.184 main 304 248 ______P__O____ -1 -22.1758 154.175 -22.2000 154.200 TC 30 999 11 186
1926136S22154 1926 20 SP EA NOT_NAMED 1926-05-16 03:00:00 TS -22.7044 154.118 main 248 196 ______P__P____ -1 -22.7029 154.103 -22.7065 154.140 TC 11 186
1926136S22154 1926 20 SP EA NOT_NAMED 1926-05-16 06:00:00 TS -23.2215 154.060 main 196 141 ______P__P____ -1 -23.2282 154.040 -23.2125 154.086 TC 10 185
1926136S22154 1926 20 SP EA NOT_NAMED 1926-05-16 09:00:00 TS -23.7336 154.019 main 141 97 ______P__P____ -1 -23.7501 153.993 -23.7172 154.046 TC 10 183
1926136S22154 1926 20 SP EA NOT_NAMED 1926-05-16 12:00:00 TS -24.2436 153.998 main 97 69 ______P__P____ -1 -24.2672 153.969 -24.2200 154.026 TC 10 181
1926136S22154 1926 20 SP EA NOT_NAMED 1926-05-16 15:00:00 TS -24.7493 154.005 main 69 60 ______P__P____ -1 -24.7782 153.975 -24.7203 154.035 TC 10 178
1926136S22154 1926 20 SP EA NOT_NAMED 1926-05-16 18:00:00 TS -25.2496 154.049 main 64 64 ______P__P____ -1 -25.2816 154.020 -25.2175 154.078 TC 10 173
1926136S22154 1926 20 SP EA NOT_NAMED 1926-05-16 21:00:00 TS -25.7435 154.137 main 92 92 ______P__P____ -1 -25.7761 154.111 -25.7109 154.164 TC 10 169
1926136S22154 1926 20 SP EA NOT_NAMED 1926-05-16 23:00:00 TS -26.0688 154.224 bom main 109 109 ______O__P____ -1 -26.1000 154.200 -26.0375 154.249 TC 10 166
1926136S22154 1926 20 SP EA NOT_NAMED 1926-05-17 00:00:00 TS -26.2300 154.277 main 119 119 ______P__O____ -1 -26.2601 154.254 -26.2000 154.300 TC 10 161
1926136S22154 1926 20 SP EA NOT_NAMED 1926-05-17 03:00:00 TS -26.7065 154.474 main 136 133 ______P__P____ -1 -26.7305 154.456 -26.6825 154.492 TC 10 157
1926136S22154 1926 20 SP EA NOT_NAMED 1926-05-17 06:00:00 TS -27.1657 154.728 main 142 142 ______P__P____ -1 -27.1814 154.715 -27.1500 154.741 TC 10 151
1926136S22154 1926 20 SP EA NOT_NAMED 1926-05-17 09:00:00 TS -27.5996 155.037 main 152 152 ______P__P____ -1 -27.6066 155.030 -27.5925 155.044 TC 10 144
1926136S22154 1926 20 SP EA NOT_NAMED 1926-05-17 12:00:00 TS -28.0000 155.400 bom main 177 177 ______O__O____ -1 -28.0000 155.400 -28.0000 155.400 TC 10 138
1926136S22154 1926 20 SP EA NOT_NAMED 1926-05-17 15:00:00 TS -28.3722 155.818 main 215 215 ______P__P____ -1 -28.3692 155.827 -28.3752 155.809 TC 11 132
1926136S22154 1926 20 SP EA NOT_NAMED 1926-05-17 18:00:00 TS -28.7094 156.283 main 263 263 ______P__P____ -1 -28.7051 156.301 -28.7136 156.264 TC 11 128
1926136S22154 1926 20 SP EA NOT_NAMED 1926-05-17 21:00:00 TS -29.0156 156.762 main 311 311 ______P__P____ -1 -29.0110 156.786 -29.0202 156.738 TC 10 126
1926136S22154 1926 20 SP EA NOT_NAMED 1926-05-17 23:00:00 TS -29.2047 157.075 bom main 341 341 ______O__P____ -1 -29.2000 157.100 -29.2094 157.049 TC 10 125
1926136S22154 1926 20 SP EA NOT_NAMED 1926-05-18 00:00:00 TS -29.2966 157.219 main 352 352 ______P__O____ -1 -29.2933 157.238 -29.3000 157.200 TC 9 126
1926136S22154 1926 20 SP EA NOT_NAMED 1926-05-18 03:00:00 TS -29.5556 157.628 main 395 395 ______P__P____ -1 -29.5530 157.628 -29.5582 157.627 TC 8 126
1926136S22154 1926 20 SP EA NOT_NAMED 1926-05-18 06:00:00 TS -29.7926 158.004 main 437 437 ______P__P____ -1 -29.7872 157.990 -29.7980 158.018 TC 8 126
1926136S22154 1926 20 SP EA NOT_NAMED 1926-05-18 09:00:00 TS -30.0119 158.353 main 480 480 ______P__P____ -1 -30.0015 158.328 -30.0222 158.378 TC 7 126
1926136S22154 1926 20 SP EA NOT_NAMED 1926-05-18 12:00:00 TS -30.2175 158.681 main 513 513 ______P__P____ -1 -30.2014 158.649 -30.2335 158.713 TC 7 126
1926136S22154 1926 20 SP EA NOT_NAMED 1926-05-18 15:00:00 TS -30.4135 158.994 main 547 547 ______P__P____ -1 -30.3925 158.961 -30.4345 159.027 TC 7 126
1926136S22154 1926 20 SP EA NOT_NAMED 1926-05-18 18:00:00 TS -30.6039 159.299 main 580 580 ______P__P____ -1 -30.5802 159.271 -30.6275 159.326 TC 6 126
1926136S22154 1926 20 SP EA NOT_NAMED 1926-05-18 21:00:00 TS -30.7893 159.598 main 611 611 ______P__P____ -1 -30.7698 159.585 -30.8153 159.615 TC 6 126
1926136S22154 1926 20 SP EA NOT_NAMED 1926-05-18 23:00:00 TS -30.9129 159.802 bom main 632 632 ______O__P____ -1 -30.9000 159.800 -30.9386 159.805 TC 6 125
1926136S22154 1926 20 SP EA NOT_NAMED 1926-05-19 00:00:00 TS -30.9734 159.908 main 643 643 ______P__O____ -1 -30.9667 159.910 -31.0000 159.900 TC 7 124
1926136S22154 1926 20 SP MM NOT_NAMED 1926-05-19 03:00:00 NR -31.1735 160.251 main 684 684 ______P_______ -1 -31.1735 160.251 TC 7 125
1926136S22154 1926 20 SP MM NOT_NAMED 1926-05-19 06:00:00 NR -31.3890 160.606 main 712 712 ______P_______ -1 -31.3890 160.606 TC 8 125
1926136S22154 1926 20 SP MM NOT_NAMED 1926-05-19 09:00:00 NR -31.6116 160.973 main 750 750 ______P_______ -1 -31.6116 160.973 TC 8 125
1926136S22154 1926 20 SP MM NOT_NAMED 1926-05-19 12:00:00 NR -31.8398 161.351 main 789 789 ______P_______ -1 -31.8398 161.351 TC 8 125
1926136S22154 1926 20 SP MM NOT_NAMED 1926-05-19 15:00:00 NR -32.0721 161.738 main 820 820 ______P_______ -1 -32.0721 161.738 TC 8 125
1926136S22154 1926 20 SP MM NOT_NAMED 1926-05-19 18:00:00 NR -32.3069 162.132 main 860 860 ______P_______ -1 -32.3069 162.132 TC 8 125
1926136S22154 1926 20 SP MM NOT_NAMED 1926-05-19 21:00:00 NR -32.5428 162.532 main 900 900 ______P_______ -1 -32.5428 162.532 TC 8 125
1926136S22154 1926 20 SP MM NOT_NAMED 1926-05-19 23:00:00 NR -32.7000 162.800 bom main 927 ______O_______ -1 -32.7000 162.800 TC 8 125

Digital Typhoon Data and Search

About IBTrACS Database

This database is a web-friendly format of International Best Track Archive for Climate Stewardship (IBTrACS), a global best track data archive curated by NOAA dating back to 1842.

Updated: 2021-10-19